Time;durP1;ratioP1;P1;durP2;ratioP2;P2;SDS_P1;SDS_P2;PMS_P1;PMS_P2;Temp;Humidity;BMP_temperature;BMP_pressure;BME280_temperature;BME280_humidity;BME280_pressure;Samples;Min_cycle;Max_cycle;Signal;HPM_P1;HPM_P2
2023/12/29 00:01:32;;;;;;;0.60;0.50;;;10.00;99.90;;;;;;5036229;28;20022;-71
2023/12/29 00:03:58;;;;;;;0.93;0.90;;;9.90;99.90;;;;;;5036340;28;20056;-71
2023/12/29 00:06:23;;;;;;;0.80;0.50;;;10.00;99.90;;;;;;5036199;28;20057;-71
2023/12/29 00:08:49;;;;;;;0.80;0.50;;;9.90;99.90;;;;;;5036016;28;20076;-71
2023/12/29 00:11:21;;;;;;;1.58;1.00;;;9.90;99.90;;;;;;5036636;28;20028;-71
2023/12/29 00:13:47;;;;;;;4.20;0.95;;;9.90;99.90;;;;;;5036098;28;20040;-71
2023/12/29 00:16:14;;;;;;;0.68;0.55;;;9.80;99.90;;;;;;5036580;28;20025;-71
2023/12/29 00:18:39;;;;;;;2.75;0.95;;;9.80;99.90;;;;;;5035999;28;20025;-71
2023/12/29 00:21:05;;;;;;;1.10;0.60;;;9.80;99.90;;;;;;5036721;28;20048;-71
2023/12/29 00:23:31;;;;;;;1.65;0.63;;;9.80;99.90;;;;;;5035312;28;20030;-71
2023/12/29 00:25:57;;;;;;;0.80;0.50;;;9.80;99.90;;;;;;5019362;28;20045;-71
2023/12/29 00:28:22;;;;;;;0.65;0.60;;;9.80;99.90;;;;;;5018953;28;20018;-71
2023/12/29 00:30:48;;;;;;;1.25;0.50;;;9.80;99.90;;;;;;5019525;28;20022;-71
2023/12/29 00:33:13;;;;;;;0.98;0.63;;;9.90;99.90;;;;;;5018308;28;20053;-71
2023/12/29 00:35:39;;;;;;;0.43;0.30;;;9.80;99.90;;;;;;5019151;28;20026;-71
2023/12/29 00:38:06;;;;;;;0.52;0.45;;;9.90;99.90;;;;;;5019147;28;20022;-71
2023/12/29 00:40:32;;;;;;;0.28;0.20;;;9.90;99.90;;;;;;5019426;28;20064;-71
2023/12/29 00:42:57;;;;;;;0.47;0.40;;;10.00;99.90;;;;;;5018751;28;20058;-71
2023/12/29 00:45:23;;;;;;;2.35;0.50;;;9.90;99.90;;;;;;5018798;28;20076;-71
2023/12/29 00:47:50;;;;;;;0.40;0.40;;;10.00;99.90;;;;;;5019138;28;20022;-71
2023/12/29 00:50:16;;;;;;;3.13;0.60;;;9.90;99.90;;;;;;5018719;28;20120;-71
2023/12/29 00:52:42;;;;;;;0.60;0.45;;;9.90;99.90;;;;;;5019391;28;20057;-71
2023/12/29 00:55:07;;;;;;;0.88;0.60;;;10.00;99.90;;;;;;5019116;28;20037;-71
2023/12/29 00:57:33;;;;;;;0.68;0.47;;;9.90;99.90;;;;;;5018733;28;20022;-71
2023/12/29 01:00:01;;;;;;;1.65;0.65;;;9.90;99.90;;;;;;5019319;28;20098;-71
2023/12/29 01:02:26;;;;;;;0.70;0.40;;;9.90;99.90;;;;;;5019147;28;20048;-71
2023/12/29 01:04:52;;;;;;;0.57;0.50;;;9.90;99.90;;;;;;5018760;28;20021;-71
2023/12/29 01:07:17;;;;;;;1.05;0.60;;;9.90;99.90;;;;;;5018643;28;20041;-71
2023/12/29 01:09:43;;;;;;;1.00;0.50;;;9.90;99.90;;;;;;5018786;28;20163;-65
2023/12/29 01:12:09;;;;;;;0.47;0.45;;;9.90;99.90;;;;;;5018518;28;20026;-65
2023/12/29 01:14:35;;;;;;;0.65;0.43;;;10.00;99.90;;;;;;5018222;28;20049;-65
2023/12/29 01:17:00;;;;;;;1.65;0.50;;;9.90;99.90;;;;;;5018209;28;20026;-64
2023/12/29 01:19:26;;;;;;;0.95;0.65;;;9.60;99.90;;;;;;5018761;28;20035;-65
2023/12/29 01:21:51;;;;;;;0.50;0.50;;;9.40;99.90;;;;;;5018376;28;20116;-65
2023/12/29 01:24:17;;;;;;;1.83;0.63;;;9.40;99.90;;;;;;5019068;28;20117;-65
2023/12/29 01:26:42;;;;;;;1.27;0.52;;;9.40;99.90;;;;;;5018715;28;20025;-65
2023/12/29 01:29:08;;;;;;;1.30;0.40;;;9.40;99.90;;;;;;5018145;28;20072;-65
2023/12/29 01:31:33;;;;;;;0.98;0.65;;;9.50;99.90;;;;;;5018441;28;20026;-65
2023/12/29 01:33:59;;;;;;;0.60;0.50;;;9.70;99.90;;;;;;5018852;28;20025;-65
2023/12/29 01:36:25;;;;;;;2.95;0.70;;;9.90;99.90;;;;;;5018044;28;20080;-65
2023/12/29 01:38:50;;;;;;;1.10;0.70;;;10.00;99.90;;;;;;5018569;28;20058;-65
2023/12/29 01:41:19;;;;;;;1.15;0.60;;;10.00;99.90;;;;;;5017964;28;20056;-65
2023/12/29 01:43:56;;;;;;;0.80;0.60;;;10.00;99.90;;;;;;5017515;28;20054;-65
2023/12/29 01:46:23;;;;;;;1.52;0.63;;;10.00;99.90;;;;;;5017688;28;20060;-65
2023/12/29 01:48:48;;;;;;;1.65;0.50;;;10.00;99.90;;;;;;5017389;28;20029;-65
2023/12/29 01:51:17;;;;;;;0.75;0.60;;;9.90;99.90;;;;;;5017588;28;20022;-65
2023/12/29 01:53:43;;;;;;;1.23;0.80;;;9.80;99.90;;;;;;5017726;28;20033;-65
2023/12/29 01:56:09;;;;;;;1.38;0.80;;;9.80;99.90;;;;;;5017733;28;20026;-65
2023/12/29 01:58:34;;;;;;;6.22;0.90;;;10.00;99.90;;;;;;5017792;28;20022;-65
2023/12/29 02:01:01;;;;;;;0.75;0.50;;;10.00;99.90;;;;;;5017319;28;20026;-65
2023/12/29 02:03:27;;;;;;;1.45;0.60;;;9.90;99.90;;;;;;5017547;28;20048;-65
2023/12/29 02:05:55;;;;;;;1.48;0.77;;;10.00;99.90;;;;;;5017987;28;20022;-65
2023/12/29 02:08:22;;;;;;;2.25;0.57;;;10.00;99.90;;;;;;5017854;28;20057;-65
2023/12/29 02:10:48;;;;;;;1.25;0.70;;;10.10;99.90;;;;;;5017206;28;20026;-71
2023/12/29 02:13:14;;;;;;;1.55;0.82;;;10.00;99.90;;;;;;5017160;28;20090;-71
2023/12/29 02:15:40;;;;;;;1.80;0.68;;;10.10;99.90;;;;;;5020162;28;20116;-71
2023/12/29 02:18:09;;;;;;;0.70;0.70;;;10.20;99.90;;;;;;5033240;28;20025;-71
2023/12/29 02:20:35;;;;;;;2.67;0.82;;;10.20;99.90;;;;;;5033483;28;20026;-71
2023/12/29 02:23:02;;;;;;;4.40;0.93;;;10.20;99.90;;;;;;5033893;28;20037;-71
2023/12/29 02:25:28;;;;;;;2.00;1.00;;;10.30;99.90;;;;;;5032112;28;20026;-71
2023/12/29 02:28:02;;;;;;;0.88;0.45;;;10.30;99.90;;;;;;5016709;28;20025;-71
2023/12/29 02:30:49;;;;;;;2.22;0.88;;;10.30;99.90;;;;;;5026671;28;20140;-71
2023/12/29 02:33:19;;;;;;;1.00;0.63;;;10.20;99.90;;;;;;5053132;28;20029;-71
2023/12/29 02:35:46;;;;;;;5.78;1.33;;;10.20;99.90;;;;;;5044527;28;20053;-71
2023/12/29 02:38:12;;;;;;;1.42;0.75;;;10.20;99.90;;;;;;5016675;28;20064;-71
2023/12/29 02:40:38;;;;;;;1.92;0.80;;;10.20;99.90;;;;;;5016643;28;20034;-71
2023/12/29 02:43:04;;;;;;;4.55;0.88;;;10.20;99.90;;;;;;5016875;28;20036;-71
2023/12/29 02:45:29;;;;;;;1.98;0.70;;;10.20;99.90;;;;;;5016973;28;20061;-71
2023/12/29 02:47:55;;;;;;;2.10;0.63;;;10.20;99.90;;;;;;5017469;28;20022;-71
2023/12/29 02:50:21;;;;;;;0.98;0.52;;;10.20;99.90;;;;;;5016889;28;20028;-70
2023/12/29 02:52:46;;;;;;;1.17;0.70;;;10.30;99.90;;;;;;5017451;28;20093;-71
2023/12/29 02:55:12;;;;;;;3.95;1.05;;;10.30;99.90;;;;;;5016616;28;20048;-71
2023/12/29 02:57:38;;;;;;;3.75;0.90;;;10.30;99.90;;;;;;5016464;28;20028;-71
2023/12/29 03:00:05;;;;;;;1.13;0.90;;;10.30;99.90;;;;;;5016792;28;20033;-71
2023/12/29 03:02:31;;;;;;;3.63;1.25;;;10.30;99.90;;;;;;5016659;28;20026;-71
2023/12/29 03:04:56;;;;;;;2.25;0.70;;;10.20;99.90;;;;;;5016672;28;20028;-71
2023/12/29 03:07:22;;;;;;;1.52;0.77;;;10.20;99.90;;;;;;5017474;28;20034;-71
2023/12/29 03:09:47;;;;;;;2.78;0.75;;;10.20;99.90;;;;;;5016603;28;20026;-71
2023/12/29 03:12:13;;;;;;;1.73;0.93;;;10.10;99.90;;;;;;5016375;28;20022;-71
2023/12/29 03:14:38;;;;;;;3.10;0.85;;;10.10;99.90;;;;;;5016272;28;20022;-71
2023/12/29 03:17:04;;;;;;;6.07;1.08;;;10.10;99.90;;;;;;5016276;28;20026;-71
2023/12/29 03:19:30;;;;;;;5.38;1.20;;;10.10;99.90;;;;;;5016668;28;20124;-71
2023/12/29 03:21:55;;;;;;;8.52;0.90;;;10.10;99.90;;;;;;5016938;28;20026;-71
2023/12/29 03:24:21;;;;;;;1.27;0.65;;;10.10;99.90;;;;;;5016508;28;20026;-71
2023/12/29 03:26:46;;;;;;;3.90;0.88;;;10.10;99.90;;;;;;5016260;28;20021;-71
2023/12/29 03:29:12;;;;;;;8.15;1.25;;;10.10;99.90;;;;;;5016209;28;20033;-71
2023/12/29 03:31:39;;;;;;;3.95;0.90;;;10.10;99.90;;;;;;5016564;28;20036;-71
2023/12/29 03:34:04;;;;;;;3.72;0.68;;;10.10;99.90;;;;;;5016061;28;20030;-71
2023/12/29 03:36:30;;;;;;;5.70;0.80;;;10.20;99.90;;;;;;5016036;28;20022;-71
2023/12/29 03:38:55;;;;;;;1.92;0.80;;;10.20;99.90;;;;;;5016035;28;20053;-71
2023/12/29 03:41:21;;;;;;;5.22;1.45;;;10.20;99.90;;;;;;5016824;28;20053;-71
2023/12/29 03:43:47;;;;;;;4.45;0.95;;;10.20;99.90;;;;;;5016014;28;20076;-71
2023/12/29 03:46:20;;;;;;;2.00;1.10;;;10.20;99.90;;;;;;5016928;28;20049;-70
2023/12/29 03:48:45;;;;;;;1.75;0.68;;;10.20;99.90;;;;;;5017361;28;20057;-71
2023/12/29 03:51:11;;;;;;;4.00;0.95;;;10.20;99.90;;;;;;5017361;28;20022;-71
2023/12/29 03:53:36;;;;;;;3.33;0.70;;;10.20;99.90;;;;;;5016780;28;20026;-71
2023/12/29 03:56:07;;;;;;;1.42;0.95;;;10.20;99.90;;;;;;5016181;28;20036;-71
2023/12/29 03:58:33;;;;;;;3.55;0.85;;;10.20;99.90;;;;;;5017068;28;20026;-71
2023/12/29 04:00:58;;;;;;;2.95;0.90;;;10.30;99.90;;;;;;5015795;28;20037;-71
2023/12/29 04:03:24;;;;;;;5.10;1.55;;;10.40;99.90;;;;;;5015764;28;20034;-71
2023/12/29 04:05:50;;;;;;;2.42;0.95;;;10.30;99.90;;;;;;5016672;28;20026;-71
2023/12/29 04:08:15;;;;;;;8.63;1.08;;;10.40;99.90;;;;;;5034499;28;20064;-70
2023/12/29 04:10:41;;;;;;;5.30;1.17;;;10.40;99.90;;;;;;5019338;28;20077;-71
2023/12/29 04:13:06;;;;;;;2.40;0.75;;;10.30;99.90;;;;;;5020708;28;20029;-70
2023/12/29 04:15:32;;;;;;;4.72;0.85;;;10.30;99.90;;;;;;5019537;28;20209;-71
2023/12/29 04:17:58;;;;;;;3.78;0.80;;;10.20;99.90;;;;;;5020074;28;20117;-71
2023/12/29 04:20:24;;;;;;;6.55;1.10;;;10.20;99.90;;;;;;5020373;28;20116;-71
2023/12/29 04:22:50;;;;;;;5.57;0.70;;;10.20;99.90;;;;;;5020096;28;20022;-71
2023/12/29 04:25:15;;;;;;;4.95;0.73;;;10.20;99.90;;;;;;5019195;28;20065;-71
2023/12/29 04:27:41;;;;;;;2.85;0.60;;;10.20;99.90;;;;;;5019444;28;20054;-70
2023/12/29 04:30:07;;;;;;;6.22;0.88;;;10.20;99.90;;;;;;5019052;28;20029;-71
2023/12/29 04:32:33;;;;;;;2.90;0.82;;;10.20;99.90;;;;;;5019913;28;20116;-71
2023/12/29 04:34:58;;;;;;;1.25;0.65;;;10.20;99.90;;;;;;5020125;28;20049;-71
2023/12/29 04:37:24;;;;;;;5.05;0.73;;;10.20;99.90;;;;;;5037814;28;20056;-71
2023/12/29 04:39:49;;;;;;;3.20;0.77;;;10.20;99.90;;;;;;5039442;28;20032;-71
2023/12/29 04:42:16;;;;;;;7.32;1.15;;;10.20;99.90;;;;;;5038522;28;20029;-71
2023/12/29 04:44:42;;;;;;;3.00;1.20;;;10.20;99.90;;;;;;5039398;28;20107;-71
2023/12/29 04:47:07;;;;;;;3.83;1.05;;;10.10;99.90;;;;;;5038486;28;20025;-71
2023/12/29 04:49:33;;;;;;;3.45;1.38;;;10.10;99.90;;;;;;5038781;28;20060;-71
2023/12/29 04:51:58;;;;;;;2.33;0.98;;;10.10;99.90;;;;;;5039553;28;20021;-71
2023/12/29 04:54:25;;;;;;;3.50;1.10;;;10.10;99.90;;;;;;5039196;28;20040;-71
2023/12/29 04:56:50;;;;;;;3.55;1.23;;;10.10;99.90;;;;;;5038780;28;20057;-71
2023/12/29 04:59:16;;;;;;;3.03;1.20;;;10.10;99.90;;;;;;5038303;28;20033;-70
2023/12/29 05:01:41;;;;;;;2.30;0.95;;;10.10;99.90;;;;;;5039136;28;20022;-71
2023/12/29 05:04:07;;;;;;;1.33;0.65;;;10.10;99.90;;;;;;5038987;28;20036;-71
2023/12/29 05:06:32;;;;;;;1.80;0.90;;;10.10;99.90;;;;;;5039401;28;20075;-70
2023/12/29 05:08:58;;;;;;;6.80;0.77;;;10.10;99.90;;;;;;5038894;28;20021;-70
2023/12/29 05:11:24;;;;;;;1.45;0.90;;;10.10;99.90;;;;;;5038555;28;20063;-70
2023/12/29 05:13:49;;;;;;;2.08;0.73;;;10.10;99.90;;;;;;5038408;28;20030;-71
2023/12/29 05:16:15;;;;;;;2.20;0.70;;;10.10;99.90;;;;;;5038868;28;20029;-71
2023/12/29 05:18:41;;;;;;;4.00;0.57;;;10.10;99.90;;;;;;5037830;28;20029;-71
2023/12/29 05:21:17;;;;;;;4.35;1.13;;;10.20;99.90;;;;;;5038859;28;20032;-71
2023/12/29 05:23:45;;;;;;;2.20;0.57;;;10.20;99.90;;;;;;5039318;28;20087;-70
2023/12/29 05:26:10;;;;;;;3.50;0.98;;;10.20;99.90;;;;;;5038695;28;20024;-70
2023/12/29 05:28:36;;;;;;;1.25;0.65;;;10.20;99.90;;;;;;5038078;28;20112;-70
2023/12/29 05:31:03;;;;;;;9.13;1.20;;;10.20;99.90;;;;;;5038510;28;20024;-71
2023/12/29 05:33:33;;;;;;;1.95;1.00;;;10.30;99.90;;;;;;5038097;28;20028;-71
2023/12/29 05:36:05;;;;;;;4.10;0.70;;;10.30;99.90;;;;;;5037769;28;20103;-71
2023/12/29 05:38:31;;;;;;;5.55;0.77;;;10.30;99.90;;;;;;5037695;28;20053;-71
2023/12/29 05:40:57;;;;;;;2.20;0.77;;;10.30;99.90;;;;;;5038389;28;20048;-71
2023/12/29 05:43:22;;;;;;;3.67;1.27;;;10.30;99.90;;;;;;5038275;28;20025;-71
2023/12/29 05:45:48;;;;;;;5.53;1.33;;;10.30;99.90;;;;;;5038260;28;20061;-71
2023/12/29 05:48:13;;;;;;;2.90;0.90;;;10.40;99.90;;;;;;5037330;28;20025;-71
2023/12/29 05:50:39;;;;;;;2.28;1.00;;;10.40;99.90;;;;;;5037256;28;20116;-71
2023/12/29 05:53:05;;;;;;;3.17;0.70;;;10.40;99.90;;;;;;5038282;28;20036;-71
2023/12/29 05:55:31;;;;;;;6.53;1.00;;;10.40;99.90;;;;;;5038070;28;20071;-71
2023/12/29 05:57:57;;;;;;;6.38;0.88;;;10.40;99.90;;;;;;5037244;28;20025;-71
2023/12/29 06:00:22;;;;;;;1.13;0.70;;;10.30;99.90;;;;;;5038091;28;20025;-71
2023/12/29 06:02:48;;;;;;;2.33;0.75;;;10.30;99.90;;;;;;5037196;28;20032;-70
2023/12/29 06:05:14;;;;;;;2.30;0.77;;;10.40;99.90;;;;;;5037122;28;20017;-71
2023/12/29 06:07:40;;;;;;;3.53;1.30;;;10.40;99.90;;;;;;5038215;28;20056;-71
2023/12/29 06:10:06;;;;;;;2.25;0.93;;;10.40;99.90;;;;;;5037256;28;20033;-71
2023/12/29 06:12:31;;;;;;;3.95;1.00;;;10.40;99.90;;;;;;5037421;28;20022;-71
2023/12/29 06:14:57;;;;;;;2.40;0.70;;;10.40;99.90;;;;;;5037330;28;20029;-71
2023/12/29 06:17:23;;;;;;;1.83;0.80;;;10.40;99.90;;;;;;5037136;28;20033;-71
2023/12/29 06:19:48;;;;;;;1.92;0.43;;;10.40;99.90;;;;;;5038041;28;20112;-70
2023/12/29 06:22:14;;;;;;;2.05;0.75;;;10.40;99.90;;;;;;5036623;28;20025;-71
2023/12/29 06:24:40;;;;;;;2.25;0.60;;;10.40;99.90;;;;;;5038456;28;20032;-71
2023/12/29 06:27:11;;;;;;;3.13;0.80;;;10.40;99.90;;;;;;5036943;28;20072;-71
2023/12/29 06:29:36;;;;;;;1.60;0.90;;;10.40;99.90;;;;;;5036225;28;20017;-70
2023/12/29 06:32:05;;;;;;;4.13;1.05;;;10.40;99.90;;;;;;5037438;28;20332;-71
2023/12/29 06:34:31;;;;;;;1.52;0.82;;;10.30;99.90;;;;;;5037641;28;20026;-71
2023/12/29 06:36:56;;;;;;;2.13;0.73;;;10.40;99.90;;;;;;5037221;28;20021;-71
2023/12/29 06:39:23;;;;;;;1.42;0.63;;;10.40;99.90;;;;;;5037463;28;20022;-71
2023/12/29 06:41:48;;;;;;;0.60;0.52;;;10.50;99.90;;;;;;5037313;28;20044;-71
2023/12/29 06:44:14;;;;;;;7.03;1.00;;;10.50;99.90;;;;;;5053191;28;20021;-71
2023/12/29 06:46:40;;;;;;;1.30;1.00;;;10.50;99.90;;;;;;5053310;28;20025;-71
2023/12/29 06:49:08;;;;;;;1.63;0.80;;;10.50;99.90;;;;;;5037058;28;20022;-71
2023/12/29 06:51:35;;;;;;;3.55;0.70;;;10.50;99.90;;;;;;5037298;28;20033;-70
2023/12/29 06:54:01;;;;;;;2.50;0.60;;;10.50;99.90;;;;;;5037201;28;20025;-70
2023/12/29 06:56:26;;;;;;;3.35;0.57;;;10.50;99.90;;;;;;5052836;28;20025;-71
2023/12/29 06:58:52;;;;;;;0.70;0.50;;;10.50;99.90;;;;;;5036394;28;20029;-71
2023/12/29 07:01:18;;;;;;;5.05;1.00;;;10.40;99.90;;;;;;5036325;28;20051;-70
2023/12/29 07:03:44;;;;;;;3.28;1.00;;;10.40;99.90;;;;;;5037282;28;20136;-71
2023/12/29 07:06:10;;;;;;;2.85;0.70;;;10.50;99.90;;;;;;5037265;28;20100;-71
2023/12/29 07:08:36;;;;;;;1.85;0.63;;;10.50;99.90;;;;;;5037327;28;20079;-70
2023/12/29 07:11:02;;;;;;;3.17;0.60;;;10.50;99.90;;;;;;5036812;28;20037;-64
2023/12/29 07:13:28;;;;;;;4.65;0.85;;;10.50;99.90;;;;;;5036873;28;20024;-64
2023/12/29 07:15:54;;;;;;;6.28;1.05;;;10.50;99.90;;;;;;5036068;28;20112;-64
2023/12/29 07:18:19;;;;;;;5.13;0.60;;;10.50;99.90;;;;;;5036981;28;20089;-64
2023/12/29 07:20:45;;;;;;;1.25;0.60;;;10.40;99.90;;;;;;5035866;28;20064;-64
2023/12/29 07:23:10;;;;;;;3.75;0.90;;;10.50;99.90;;;;;;5035839;28;20025;-64
2023/12/29 07:25:36;;;;;;;1.63;0.70;;;10.40;99.90;;;;;;5036781;28;20025;-64
2023/12/29 07:28:02;;;;;;;3.50;0.88;;;10.50;99.90;;;;;;5037101;28;20021;-64
2023/12/29 07:30:27;;;;;;;7.53;1.17;;;10.50;99.90;;;;;;5036781;28;20053;-64
2023/12/29 07:32:53;;;;;;;3.92;0.98;;;10.50;99.90;;;;;;5036966;28;20036;-64
2023/12/29 07:35:19;;;;;;;4.18;0.75;;;10.50;99.90;;;;;;5052434;28;20030;-64
2023/12/29 07:37:46;;;;;;;4.85;0.98;;;10.50;99.90;;;;;;5035859;28;20022;-65
2023/12/29 07:40:13;;;;;;;2.55;0.98;;;10.50;99.90;;;;;;5035751;28;20096;-64
2023/12/29 07:42:40;;;;;;;2.05;0.93;;;10.50;99.90;;;;;;5039741;28;20021;-64
2023/12/29 07:45:06;;;;;;;1.27;0.70;;;10.40;99.90;;;;;;5041086;28;20036;-64
2023/12/29 07:47:32;;;;;;;2.80;0.70;;;10.40;99.90;;;;;;5056440;28;20026;-64
2023/12/29 07:49:57;;;;;;;2.00;0.70;;;10.40;99.90;;;;;;5039920;28;20022;-64
2023/12/29 07:52:23;;;;;;;3.45;1.85;;;10.50;99.90;;;;;;5039500;28;20037;-65
2023/12/29 07:54:49;;;;;;;1.40;0.60;;;10.50;99.90;;;;;;5039698;28;20025;-64
2023/12/29 07:57:23;;;;;;;3.50;0.60;;;10.60;99.90;;;;;;5056226;28;20021;-64
2023/12/29 07:59:48;;;;;;;2.67;0.55;;;10.60;99.90;;;;;;5056605;28;20021;-64
2023/12/29 08:02:14;;;;;;;2.50;1.88;;;10.60;99.90;;;;;;5053949;28;20036;-65
2023/12/29 08:04:39;;;;;;;2.25;1.10;;;10.60;99.90;;;;;;5019604;28;20068;-64
2023/12/29 08:07:05;;;;;;;5.95;1.00;;;10.50;99.90;;;;;;5020398;28;20018;-64
2023/12/29 08:09:30;;;;;;;0.88;0.60;;;10.60;99.90;;;;;;5020133;28;20053;-64
2023/12/29 08:11:56;;;;;;;3.42;0.98;;;10.50;99.90;;;;;;5020498;28;20028;-64
2023/12/29 08:14:22;;;;;;;0.82;0.50;;;10.50;99.90;;;;;;5020540;28;20022;-64
2023/12/29 08:16:47;;;;;;;0.88;0.43;;;10.50;99.90;;;;;;5020253;28;20030;-64
2023/12/29 08:19:15;;;;;;;3.35;0.52;;;10.50;99.90;;;;;;5020146;28;20030;-64
2023/12/29 08:21:40;;;;;;;1.20;0.60;;;10.50;99.90;;;;;;5020507;28;20101;-64
2023/12/29 08:24:06;;;;;;;1.42;0.60;;;10.50;99.90;;;;;;5020027;28;20110;-64
2023/12/29 08:26:31;;;;;;;2.95;0.50;;;10.50;99.90;;;;;;5019741;28;20022;-64
2023/12/29 08:28:57;;;;;;;2.58;0.52;;;10.60;99.90;;;;;;5019027;28;20028;-65
2023/12/29 08:31:23;;;;;;;1.92;1.02;;;10.60;99.90;;;;;;5019883;28;20018;-64
2023/12/29 08:33:48;;;;;;;6.70;0.80;;;10.70;99.90;;;;;;5020087;28;20026;-64
2023/12/29 08:36:17;;;;;;;3.85;0.55;;;10.70;99.90;;;;;;5019030;28;20037;-64
2023/12/29 08:38:43;;;;;;;3.20;0.70;;;10.60;99.90;;;;;;5019790;28;20026;-64
2023/12/29 08:41:08;;;;;;;1.67;0.52;;;10.60;99.90;;;;;;5019920;28;20113;-64
2023/12/29 08:43:36;;;;;;;3.38;1.13;;;10.70;99.90;;;;;;5035637;28;20113;-64
2023/12/29 08:46:01;;;;;;;1.45;0.95;;;10.70;99.90;;;;;;5018906;28;20045;-64
2023/12/29 08:48:27;;;;;;;4.43;0.70;;;10.70;99.90;;;;;;5019104;28;20022;-64
2023/12/29 08:50:52;;;;;;;1.40;0.90;;;10.80;99.90;;;;;;5019084;28;20026;-64
2023/12/29 08:53:18;;;;;;;2.50;0.68;;;10.80;99.90;;;;;;5017996;28;20049;-64
2023/12/29 08:55:44;;;;;;;3.58;0.60;;;10.80;99.90;;;;;;5019720;28;20026;-64
2023/12/29 08:58:09;;;;;;;1.95;0.68;;;10.80;99.90;;;;;;5018567;28;20073;-64
2023/12/29 09:00:35;;;;;;;3.00;0.50;;;10.80;99.90;;;;;;5018337;28;20026;-64
2023/12/29 09:03:00;;;;;;;2.00;0.50;;;10.80;99.90;;;;;;5018308;28;20025;-64
2023/12/29 09:05:26;;;;;;;2.08;0.52;;;10.90;99.90;;;;;;5019715;28;20046;-64
2023/12/29 09:07:51;;;;;;;2.92;0.73;;;10.90;99.90;;;;;;5018877;28;20026;-64
2023/12/29 09:10:17;;;;;;;2.63;1.10;;;10.90;99.90;;;;;;5018127;28;20030;-64
2023/12/29 09:12:43;;;;;;;6.32;0.70;;;11.00;99.90;;;;;;5019226;28;20030;-64
2023/12/29 09:15:09;;;;;;;1.88;0.65;;;11.00;99.90;;;;;;5018183;28;20036;-64
2023/12/29 09:17:35;;;;;;;8.95;3.53;;;11.00;99.90;;;;;;5018534;28;20026;-64
2023/12/29 09:20:01;;;;;;;1.17;0.50;;;11.00;99.90;;;;;;5017920;28;20033;-64
2023/12/29 09:22:26;;;;;;;1.55;0.82;;;11.00;99.90;;;;;;5019111;28;20030;-64
2023/12/29 09:24:55;;;;;;;1.83;1.13;;;10.90;99.90;;;;;;5018944;28;20022;-64
2023/12/29 09:27:21;;;;;;;6.20;0.65;;;11.00;99.90;;;;;;5027272;28;20049;-64
2023/12/29 09:29:46;;;;;;;1.67;0.60;;;11.00;99.90;;;;;;5037627;28;20022;-64
2023/12/29 09:32:12;;;;;;;3.10;0.60;;;11.00;99.90;;;;;;5037760;28;20029;-64
2023/12/29 09:34:37;;;;;;;3.22;0.77;;;11.00;99.90;;;;;;5038501;28;20017;-64
2023/12/29 09:37:03;;;;;;;1.98;0.70;;;11.10;99.90;;;;;;5038441;28;20021;-63
2023/12/29 09:39:29;;;;;;;2.30;0.93;;;11.10;99.90;;;;;;5037715;28;20013;-64
2023/12/29 09:41:58;;;;;;;5.82;1.20;;;11.10;99.90;;;;;;5038340;28;20056;-64
2023/12/29 09:44:25;;;;;;;2.67;0.93;;;11.10;99.90;;;;;;5038417;28;20087;-63
2023/12/29 09:46:55;;;;;;;1.70;0.75;;;11.10;99.90;;;;;;5037402;28;20018;-63
2023/12/29 09:49:38;;;;;;;2.90;0.90;;;11.00;99.90;;;;;;5037380;28;20029;-63
2023/12/29 09:52:06;;;;;;;2.65;0.80;;;11.00;99.90;;;;;;5038345;28;20028;-63
2023/12/29 09:54:32;;;;;;;1.58;0.60;;;11.00;99.90;;;;;;5038499;28;20032;-63
2023/12/29 09:56:59;;;;;;;3.72;0.70;;;11.00;99.90;;;;;;5037264;28;20025;-63
2023/12/29 09:59:26;;;;;;;1.35;0.50;;;11.00;99.90;;;;;;5038281;28;20022;-64
2023/12/29 10:01:53;;;;;;;0.80;0.35;;;11.10;99.90;;;;;;5037317;28;20116;-64
2023/12/29 10:04:19;;;;;;;5.38;0.63;;;11.10;99.90;;;;;;5038002;28;20025;-64
2023/12/29 10:06:48;;;;;;;1.45;0.50;;;11.10;99.90;;;;;;5037396;28;20096;-64
2023/12/29 10:09:16;;;;;;;2.42;0.63;;;11.00;99.90;;;;;;5037034;28;20037;-63
2023/12/29 10:11:44;;;;;;;0.73;0.30;;;11.10;99.90;;;;;;5037144;28;20038;-64
2023/12/29 10:14:20;;;;;;;3.20;0.50;;;11.10;99.90;;;;;;5037190;28;20025;-63
2023/12/29 10:16:55;;;;;;;3.20;0.68;;;11.10;99.90;;;;;;5037013;28;20025;-64
2023/12/29 10:19:36;;;;;;;2.17;0.65;;;11.20;99.90;;;;;;5037768;28;20026;-63
2023/12/29 10:22:24;;;;;;;2.80;0.57;;;11.20;99.90;;;;;;5038093;28;20025;-64
2023/12/29 10:24:51;;;;;;;2.58;0.93;;;11.20;99.90;;;;;;5036763;28;20025;-64
2023/12/29 10:27:16;;;;;;;1.50;0.63;;;11.20;99.90;;;;;;5036807;28;20025;-64
2023/12/29 10:29:42;;;;;;;3.22;0.50;;;11.30;99.90;;;;;;5037919;28;20082;-63
2023/12/29 10:32:09;;;;;;;1.77;0.40;;;11.30;99.90;;;;;;5037427;28;20039;-63
2023/12/29 10:34:34;;;;;;;2.50;0.60;;;11.30;99.90;;;;;;5036662;28;20045;-63
2023/12/29 10:37:04;;;;;;;3.03;0.98;;;11.30;99.90;;;;;;5036841;28;20021;-63
2023/12/29 10:39:29;;;;;;;6.10;0.60;;;11.30;99.90;;;;;;5036303;28;20057;-64
2023/12/29 10:42:08;;;;;;;1.60;0.73;;;11.20;99.90;;;;;;5037775;28;20106;-64
2023/12/29 10:44:35;;;;;;;1.80;0.60;;;11.20;99.90;;;;;;5037649;28;20021;-63
2023/12/29 10:47:14;;;;;;;0.73;0.55;;;11.20;99.90;;;;;;5037417;28;20017;-63
2023/12/29 10:49:40;;;;;;;1.52;0.57;;;11.20;99.90;;;;;;5037142;28;20014;-63
2023/12/29 10:52:14;;;;;;;4.22;0.30;;;11.20;99.90;;;;;;5037162;28;20029;-63
2023/12/29 10:54:40;;;;;;;0.30;0.30;;;11.20;99.90;;;;;;5037230;28;20018;-63
2023/12/29 10:57:05;;;;;;;1.98;0.75;;;11.20;99.90;;;;;;5036152;28;20025;-63
2023/12/29 10:59:31;;;;;;;0.93;0.47;;;11.20;99.90;;;;;;5037065;28;20018;-64
2023/12/29 11:01:56;;;;;;;1.98;0.63;;;11.20;99.90;;;;;;5036346;28;20018;-64
2023/12/29 11:04:22;;;;;;;2.17;0.60;;;11.20;99.90;;;;;;5036165;28;20025;-64
2023/12/29 11:06:51;;;;;;;1.58;0.80;;;11.20;99.90;;;;;;5037147;28;20021;-64
2023/12/29 11:09:30;;;;;;;2.55;0.65;;;11.20;99.90;;;;;;5036138;28;20030;-64
2023/12/29 11:12:08;;;;;;;4.03;0.55;;;11.20;99.90;;;;;;5037095;28;20021;-64
2023/12/29 11:14:34;;;;;;;1.48;0.30;;;11.20;99.90;;;;;;5037088;28;20026;-64
2023/12/29 11:17:00;;;;;;;3.58;0.32;;;11.20;99.90;;;;;;5036554;28;20020;-65
2023/12/29 11:19:27;;;;;;;1.17;0.60;;;11.30;99.90;;;;;;5036914;28;20049;-64
2023/12/29 11:21:55;;;;;;;2.13;0.88;;;11.30;99.90;;;;;;5036230;28;20076;-64
2023/12/29 11:24:21;;;;;;;3.65;1.20;;;11.20;99.90;;;;;;5036855;28;20057;-64
2023/12/29 11:26:49;;;;;;;1.10;0.98;;;11.30;99.90;;;;;;5036229;28;20022;-64
2023/12/29 11:29:16;;;;;;;1.45;0.43;;;11.30;99.90;;;;;;5036663;28;20017;-64
2023/12/29 11:31:43;;;;;;;0.80;0.40;;;11.30;99.90;;;;;;5036874;28;20079;-64
2023/12/29 11:34:23;;;;;;;1.33;0.43;;;11.30;99.90;;;;;;5036870;28;20048;-64
2023/12/29 11:36:56;;;;;;;3.83;0.85;;;11.30;99.90;;;;;;5037083;28;20036;-64
2023/12/29 11:39:40;;;;;;;2.75;0.40;;;11.30;99.90;;;;;;5037021;28;20028;-65
2023/12/29 11:42:27;;;;;;;0.30;0.20;;;11.40;99.90;;;;;;5036298;28;20026;-63
2023/12/29 11:44:52;;;;;;;0.88;0.38;;;11.40;99.90;;;;;;5037139;28;20060;-64
2023/12/29 11:47:37;;;;;;;6.07;0.57;;;11.40;99.90;;;;;;5035723;28;20033;-64
2023/12/29 11:50:03;;;;;;;2.03;0.77;;;11.40;99.90;;;;;;5036538;28;20077;-64
2023/12/29 11:52:36;;;;;;;1.95;0.32;;;11.40;99.90;;;;;;5036555;28;20105;-64
2023/12/29 11:55:16;;;;;;;0.88;0.20;;;11.40;99.90;;;;;;5035912;28;20049;-64
2023/12/29 11:57:42;;;;;;;0.80;0.32;;;11.40;99.90;;;;;;5036697;28;20025;-64
2023/12/29 12:00:08;;;;;;;0.47;0.30;;;11.40;99.90;;;;;;5035362;28;20028;-64
2023/12/29 12:02:35;;;;;;;1.30;0.77;;;11.40;99.90;;;;;;5035837;28;20025;-63
2023/12/29 12:05:00;;;;;;;1.70;0.75;;;11.40;99.90;;;;;;5035769;28;20056;-64
2023/12/29 12:07:26;;;;;;;2.33;0.82;;;11.50;99.90;;;;;;5035960;28;20022;-64
2023/12/29 12:09:54;;;;;;;1.58;0.80;;;11.50;99.90;;;;;;5035359;28;20033;-64
2023/12/29 12:12:40;;;;;;;0.73;0.52;;;11.60;99.90;;;;;;5036496;28;20021;-64
2023/12/29 12:15:31;;;;;;;0.93;0.32;;;11.60;99.90;;;;;;5036595;28;20028;-65
2023/12/29 12:18:07;;;;;;;1.55;0.47;;;11.60;99.90;;;;;;5036476;28;20025;-64
2023/12/29 12:20:33;;;;;;;0.43;0.22;;;11.60;99.90;;;;;;5035413;28;20030;-65
2023/12/29 12:23:09;;;;;;;5.45;0.70;;;11.60;99.90;;;;;;5034117;28;20036;-64
2023/12/29 12:25:37;;;;;;;1.95;0.40;;;11.60;99.90;;;;;;5041378;28;20044;-65
2023/12/29 12:28:06;;;;;;;1.55;0.40;;;11.60;99.90;;;;;;5032858;28;20025;-65
2023/12/29 12:30:35;;;;;;;0.40;0.30;;;11.70;99.90;;;;;;5041246;28;20090;-65
2023/12/29 12:33:03;;;;;;;1.15;0.40;;;11.70;99.90;;;;;;5033172;28;20057;-64
2023/12/29 12:35:29;;;;;;;1.55;0.20;;;11.70;99.90;;;;;;5038842;28;20052;-65
2023/12/29 12:38:09;;;;;;;1.42;0.20;;;11.70;99.90;;;;;;5040910;28;20025;-65
2023/12/29 12:40:34;;;;;;;1.13;0.30;;;11.60;99.90;;;;;;5019693;28;20026;-65
2023/12/29 12:43:01;;;;;;;0.22;0.20;;;11.60;99.90;;;;;;5026258;28;20044;-65
2023/12/29 12:45:27;;;;;;;0.85;0.28;;;11.60;99.90;;;;;;5055083;28;20025;-65
2023/12/29 12:48:00;;;;;;;0.80;0.10;;;11.60;99.90;;;;;;5039614;28;20073;-65